createdAt,value
2018-06-03T00:00:50.953Z,93.3
2018-06-03T00:02:50.158Z,93.7
2018-06-03T00:04:50.616Z,93.3
2018-06-03T00:06:50.050Z,93.5
2018-06-03T00:08:50.181Z,93.6
2018-06-03T00:10:50.426Z,93.9
2018-06-03T00:12:50.676Z,93.9
2018-06-03T00:14:50.925Z,93.9
2018-06-03T00:16:50.350Z,94.6
2018-06-03T00:18:50.598Z,94.5
2018-06-03T00:20:50.762Z,94.5
2018-06-03T00:22:50.002Z,94.8
2018-06-03T00:24:50.117Z,94.9
2018-06-03T00:26:50.443Z,94.7
2018-06-03T00:28:50.665Z,94.9
2018-06-03T00:30:50.867Z,94.8
2018-06-03T00:32:50.016Z,94.8
2018-06-03T00:34:50.407Z,94.8
2018-06-03T00:36:50.788Z,95.1
2018-06-03T00:38:50.847Z,95.0
2018-06-03T00:40:50.104Z,95.0
2018-06-03T00:42:50.256Z,95.3
2018-06-03T00:44:50.451Z,95.3
2018-06-03T00:46:50.862Z,95.4
2018-06-03T00:48:50.063Z,95.9
2018-06-03T00:50:50.284Z,95.7
2018-06-03T00:52:50.613Z,95.5
2018-06-03T00:54:50.875Z,95.1
2018-06-03T00:56:50.170Z,95.2
2018-06-03T00:58:50.008Z,95.4
2018-06-03T01:00:50.214Z,96.0
2018-06-03T01:02:50.573Z,95.6
2018-06-03T01:04:50.060Z,95.6
2018-06-03T01:06:50.424Z,95.6
2018-06-03T01:08:50.643Z,95.6
2018-06-03T01:10:50.842Z,95.4
2018-06-03T01:12:50.021Z,95.1
2018-06-03T01:14:50.155Z,95.4
2018-06-03T01:16:50.413Z,95.8
2018-06-03T01:18:50.623Z,96.1
2018-06-03T01:20:50.892Z,95.9
2018-06-03T01:22:50.051Z,95.7
2018-06-03T01:24:50.250Z,95.6
2018-06-03T01:26:50.546Z,95.3
2018-06-03T01:28:50.757Z,95.7
2018-06-03T01:30:50.944Z,95.2
2018-06-03T01:32:50.221Z,95.4
2018-06-03T01:34:50.696Z,95.4
2018-06-03T01:36:49.960Z,96.2
2018-06-03T01:38:50.195Z,96.1
2018-06-03T01:40:50.388Z,95.9
2018-06-03T01:42:50.675Z,96.0
2018-06-03T01:44:50.906Z,96.0
2018-06-03T01:46:50.213Z,96.1
2018-06-03T01:48:50.435Z,96.3
2018-06-03T01:50:50.679Z,96.1
2018-06-03T01:52:50.876Z,96.2
2018-06-03T01:54:50.077Z,96.2
2018-06-03T01:56:50.378Z,96.7
2018-06-03T01:58:50.538Z,96.6
2018-06-03T02:00:50.809Z,97.0
2018-06-03T02:02:49.996Z,97.2
2018-06-03T02:04:50.471Z,97.0
2018-06-03T02:06:50.735Z,97.1
2018-06-03T02:08:50.650Z,97.1
2018-06-03T02:10:50.824Z,96.9
2018-06-03T02:12:50.002Z,96.8
2018-06-03T02:14:50.142Z,96.7
2018-06-03T02:16:50.443Z,97.0
2018-06-03T02:18:50.655Z,97.0
2018-06-03T02:20:50.857Z,97.1
2018-06-03T02:22:50.027Z,97.4
2018-06-03T02:24:50.314Z,97.2
2018-06-03T02:26:50.825Z,97.2
2018-06-03T02:28:49.962Z,96.6
2018-06-03T02:30:50.219Z,96.6
2018-06-03T02:32:50.454Z,96.6
2018-06-03T02:34:50.945Z,96.9
2018-06-03T02:36:50.400Z,97.2
2018-06-03T02:38:50.666Z,97.0
2018-06-03T02:40:50.834Z,97.3
2018-06-03T02:42:50.106Z,97.1
2018-06-03T02:44:50.307Z,97.5
2018-06-03T02:46:50.584Z,97.2
2018-06-03T02:48:50.778Z,97.3
2018-06-03T02:50:50.050Z,97.9
2018-06-03T02:52:50.319Z,97.8
2018-06-03T02:54:50.680Z,97.9
2018-06-03T02:56:50.034Z,98.2
2018-06-03T02:58:50.234Z,98.1
2018-06-03T03:00:50.426Z,98.0
2018-06-03T03:02:50.560Z,98.3
2018-06-03T03:04:50.938Z,98.5
2018-06-03T03:06:50.311Z,98.2
2018-06-03T03:08:50.612Z,98.2
2018-06-03T03:10:50.867Z,98.1
2018-06-03T03:12:50.112Z,98.3
2018-06-03T03:14:50.294Z,98.5
2018-06-03T03:16:50.661Z,98.2
2018-06-03T03:18:50.828Z,98.1
2018-06-03T03:20:49.995Z,98.1
2018-06-03T03:22:50.249Z,98.1
2018-06-03T03:24:50.385Z,97.8
2018-06-03T03:26:50.669Z,97.6
2018-06-03T03:28:50.911Z,97.8
2018-06-03T03:30:50.111Z,97.8
2018-06-03T03:32:50.267Z,97.4
2018-06-03T03:34:50.795Z,97.3
2018-06-03T03:36:50.077Z,97.3
2018-06-03T03:38:50.305Z,97.3
2018-06-03T03:40:50.551Z,97.1
2018-06-03T03:42:50.747Z,96.7
2018-06-03T03:44:50.016Z,96.6
2018-06-03T03:46:50.346Z,97.0
2018-06-03T03:48:50.509Z,97.4
2018-06-03T03:50:50.666Z,96.8
2018-06-03T03:52:50.930Z,96.5
2018-06-03T03:54:50.150Z,96.5
2018-06-03T03:56:50.428Z,96.5
2018-06-03T03:58:50.624Z,96.4
2018-06-03T04:00:50.832Z,96.0
2018-06-03T04:02:50.141Z,96.1
2018-06-03T04:04:50.639Z,96.2
2018-06-03T04:06:50.971Z,96.4
2018-06-03T04:08:50.185Z,96.4
2018-06-03T04:10:50.335Z,95.9
2018-06-03T04:12:50.535Z,95.7
2018-06-03T04:14:50.717Z,95.6
2018-06-03T04:16:50.034Z,95.6
2018-06-03T04:18:50.215Z,95.9
2018-06-03T04:20:50.387Z,95.0
2018-06-03T04:22:50.687Z,95.3
2018-06-03T04:24:50.918Z,95.7
2018-06-03T04:26:50.662Z,94.3
2018-06-03T04:28:50.847Z,93.9
2018-06-03T04:30:49.981Z,93.8
2018-06-03T04:32:50.292Z,93.6
2018-06-03T04:34:50.837Z,93.0
2018-06-03T04:36:50.117Z,93.1
2018-06-03T04:38:50.290Z,93.3
2018-06-03T04:40:50.420Z,91.7
2018-06-03T04:42:50.641Z,91.2
2018-06-03T04:44:50.837Z,91.6
2018-06-03T04:46:50.222Z,91.0
2018-06-03T04:48:51.019Z,90.2
2018-06-03T04:50:50.211Z,90.3
2018-06-03T04:52:50.430Z,90.1
2018-06-03T04:54:50.661Z,89.4
2018-06-03T04:56:50.986Z,89.4
2018-06-03T04:58:50.151Z,88.3
2018-06-03T05:00:50.322Z,88.3
2018-06-03T05:02:50.520Z,87.2
2018-06-03T05:04:50.878Z,86.7
2018-06-03T05:06:50.218Z,87.4
2018-06-03T05:08:50.387Z,86.6
2018-06-03T05:10:50.568Z,86.6
2018-06-03T05:12:50.865Z,87.2
2018-06-03T05:14:50.000Z,87.5
2018-06-03T05:16:50.301Z,87.7
2018-06-03T05:18:50.503Z,88.7
2018-06-03T05:20:50.689Z,86.8
2018-06-03T05:22:50.799Z,86.4
2018-06-03T05:24:50.935Z,85.0
2018-06-03T05:26:50.201Z,85.8
2018-06-03T05:28:50.445Z,86.0
2018-06-03T05:30:50.633Z,85.6
2018-06-03T05:32:50.831Z,85.0
2018-06-03T05:34:50.400Z,83.6
2018-06-03T05:36:50.313Z,84.4
2018-06-03T05:38:50.550Z,83.9
2018-06-03T05:40:50.752Z,83.9
2018-06-03T05:42:50.011Z,84.7
2018-06-03T05:44:50.199Z,84.7
2018-06-03T05:46:50.557Z,84.7
2018-06-03T05:48:50.690Z,82.6
2018-06-03T05:50:50.863Z,82.3
2018-06-03T05:52:49.985Z,79.9
2018-06-03T05:54:50.202Z,79.1
2018-06-03T05:56:50.560Z,78.9
2018-06-03T05:58:50.792Z,78.9
2018-06-03T06:00:50.919Z,79.3
2018-06-03T06:02:50.115Z,79.0
2018-06-03T06:04:50.524Z,78.0
2018-06-03T06:06:50.847Z,77.3
2018-06-03T06:08:50.017Z,77.3
2018-06-03T06:10:50.246Z,77.2
2018-06-03T06:12:50.392Z,77.1
2018-06-03T06:14:50.566Z,75.5
2018-06-03T06:16:50.837Z,74.8
2018-06-03T06:18:49.981Z,73.3
2018-06-03T06:20:50.240Z,72.9
2018-06-03T06:22:50.515Z,74.1
2018-06-03T06:24:50.729Z,73.7
2018-06-03T06:26:50.011Z,72.7
2018-06-03T06:28:50.165Z,72.4
2018-06-03T06:30:50.275Z,71.7
2018-06-03T06:32:50.403Z,72.5
2018-06-03T06:34:51.484Z,71.3
2018-06-03T06:36:50.817Z,71.0
2018-06-03T06:38:50.077Z,70.1
2018-06-03T06:40:50.840Z,70.8
2018-06-03T06:42:50.015Z,68.6
2018-06-03T06:44:50.181Z,68.2
2018-06-03T06:46:50.435Z,69.5
2018-06-03T06:48:50.642Z,67.5
2018-06-03T06:50:50.879Z,68.0
2018-06-03T06:52:50.096Z,68.5
2018-06-03T06:54:50.277Z,68.2
2018-06-03T06:56:50.515Z,67.0
2018-06-03T06:58:50.775Z,66.8
2018-06-03T07:00:51.003Z,66.7
2018-06-03T07:02:50.252Z,66.3
2018-06-03T07:04:50.772Z,66.7
2018-06-03T07:06:50.535Z,65
2018-06-03T07:08:50.638Z,65
2018-06-03T07:10:50.819Z,64
2018-06-03T07:12:50.971Z,66.0
2018-06-03T07:14:50.152Z,65.7
2018-06-03T07:16:50.539Z,66.1
2018-06-03T07:18:50.710Z,66.0
2018-06-03T07:20:50.890Z,66.1
2018-06-03T07:22:50.080Z,64
2018-06-03T07:24:50.217Z,64
2018-06-03T07:26:50.516Z,64
2018-06-03T07:28:50.740Z,64
2018-06-03T07:30:50.892Z,65
2018-06-03T07:32:50.095Z,65
2018-06-03T07:34:50.476Z,65
2018-06-03T07:36:50.805Z,64
2018-06-03T07:38:50.960Z,64.4
2018-06-03T07:40:50.211Z,64.7
2018-06-03T07:42:50.494Z,64.7
2018-06-03T07:44:50.680Z,65.8
2018-06-03T07:46:50.182Z,64.7
2018-06-03T07:48:50.404Z,63.2
2018-06-03T07:50:50.553Z,63.1
2018-06-03T07:52:50.716Z,63
2018-06-03T07:54:50.878Z,63
2018-06-03T07:56:50.203Z,63
2018-06-03T07:58:50.408Z,63
2018-06-03T08:00:50.591Z,63
2018-06-03T08:02:50.809Z,63
2018-06-03T08:04:50.361Z,63
2018-06-03T08:06:50.624Z,62
2018-06-03T08:08:50.827Z,63
2018-06-03T08:10:50.029Z,63
2018-06-03T08:12:50.208Z,63
2018-06-03T08:14:50.431Z,63
2018-06-03T08:16:50.758Z,63
2018-06-03T08:18:50.945Z,62
2018-06-03T08:20:50.102Z,61
2018-06-03T08:22:51.036Z,61
2018-06-03T08:24:50.224Z,61
2018-06-03T08:26:50.454Z,60
2018-06-03T08:28:50.697Z,60
2018-06-03T08:30:50.865Z,60
2018-06-03T08:32:50.126Z,60
2018-06-03T08:34:50.509Z,60
2018-06-03T08:36:50.855Z,60
2018-06-03T08:38:50.019Z,60
2018-06-03T08:40:50.183Z,60
2018-06-03T08:42:50.364Z,60
2018-06-03T08:44:50.601Z,60
2018-06-03T08:46:50.953Z,60
2018-06-03T08:48:50.313Z,59
2018-06-03T08:50:50.512Z,60
2018-06-03T08:52:50.729Z,60
2018-06-03T08:54:50.872Z,59
2018-06-03T08:56:50.215Z,59
2018-06-03T08:58:50.437Z,59
2018-06-03T09:00:50.633Z,58
2018-06-03T09:02:50.919Z,58
2018-06-03T09:04:50.348Z,58
2018-06-03T09:06:50.745Z,58
2018-06-03T09:08:50.077Z,58
2018-06-03T09:10:50.285Z,57
2018-06-03T09:12:50.489Z,57
2018-06-03T09:14:50.645Z,57
2018-06-03T09:16:50.016Z,56
2018-06-03T09:18:50.571Z,54.3
2018-06-03T09:20:50.754Z,54.4
2018-06-03T09:22:50.031Z,54.4
2018-06-03T09:24:50.221Z,54.9
2018-06-03T09:26:50.581Z,54.2
2018-06-03T09:28:50.757Z,53.3
2018-06-03T09:30:50.924Z,54.3
2018-06-03T09:32:50.068Z,56
2018-06-03T09:34:50.391Z,55
2018-06-03T09:36:50.663Z,55
2018-06-03T09:38:50.877Z,55
2018-06-03T09:40:50.188Z,54
2018-06-03T09:42:50.449Z,54
2018-06-03T09:44:50.607Z,54
2018-06-03T09:46:50.925Z,54
2018-06-03T09:48:50.079Z,54
2018-06-03T09:50:50.245Z,55
2018-06-03T09:52:50.387Z,54
2018-06-03T09:54:50.613Z,54
2018-06-03T09:56:50.947Z,54
2018-06-03T09:58:50.197Z,53
2018-06-03T10:00:50.437Z,54
2018-06-03T10:02:50.658Z,54
2018-06-03T10:04:50.149Z,54
2018-06-03T10:06:50.394Z,54
2018-06-03T10:08:50.575Z,54
2018-06-03T10:10:50.744Z,54
2018-06-03T10:12:49.982Z,53
2018-06-03T10:14:50.095Z,53
2018-06-03T10:16:50.365Z,53
2018-06-03T10:18:50.537Z,53
2018-06-03T10:20:50.703Z,52
2018-06-03T10:22:50.820Z,51
2018-06-03T10:24:50.993Z,51
2018-06-03T10:26:50.131Z,51
2018-06-03T10:28:50.328Z,51
2018-06-03T10:30:50.553Z,52
2018-06-03T10:32:50.781Z,52
2018-06-03T10:34:50.340Z,52
2018-06-03T10:36:50.540Z,50
2018-06-03T10:38:50.756Z,49
2018-06-03T10:40:50.915Z,45.3
2018-06-03T10:42:50.035Z,46.3
2018-06-03T10:44:50.194Z,46.3
2018-06-03T10:46:50.368Z,46.3
2018-06-03T10:48:50.549Z,50
2018-06-03T10:50:50.741Z,49
2018-06-03T10:52:50.896Z,49
2018-06-03T10:54:50.092Z,49
2018-06-03T10:56:50.382Z,49
2018-06-03T10:58:50.539Z,48
2018-06-03T11:00:50.671Z,48
2018-06-03T11:02:50.817Z,48
2018-06-03T11:04:50.201Z,49
2018-06-03T11:06:50.554Z,49
2018-06-03T11:08:50.759Z,49
2018-06-03T11:10:50.912Z,48
2018-06-03T11:12:50.050Z,48
2018-06-03T11:14:50.215Z,48
2018-06-03T11:16:50.556Z,48
2018-06-03T11:18:50.781Z,48
2018-06-03T11:20:50.945Z,48
2018-06-03T11:22:50.067Z,48
2018-06-03T11:24:50.177Z,47
2018-06-03T11:26:50.507Z,47
2018-06-03T11:28:50.693Z,48
2018-06-03T11:30:50.837Z,47
2018-06-03T11:32:50.093Z,47
2018-06-03T11:34:50.479Z,46
2018-06-03T11:36:50.762Z,46
2018-06-03T11:38:50.950Z,46
2018-06-03T11:40:50.136Z,46
2018-06-03T11:42:50.293Z,46
2018-06-03T11:44:50.416Z,46
2018-06-03T11:46:50.734Z,45
2018-06-03T11:48:50.886Z,44
2018-06-03T11:50:50.057Z,44
2018-06-03T11:52:50.309Z,44
2018-06-03T11:54:50.534Z,44
2018-06-03T11:56:50.915Z,44
2018-06-03T11:58:50.046Z,44
2018-06-03T12:00:50.231Z,44
2018-06-03T12:02:50.408Z,45
2018-06-03T12:04:50.729Z,44
2018-06-03T12:06:50.035Z,44
2018-06-03T12:08:50.242Z,44
2018-06-03T12:10:50.430Z,45
2018-06-03T12:12:50.557Z,45
2018-06-03T12:14:50.765Z,45
2018-06-03T12:16:50.073Z,44
2018-06-03T12:18:50.222Z,44
2018-06-03T12:20:50.391Z,45
2018-06-03T12:22:50.602Z,44
2018-06-03T12:24:50.788Z,44
2018-06-03T12:26:50.082Z,43
2018-06-03T12:28:50.314Z,43
2018-06-03T12:30:50.475Z,43
2018-06-03T12:32:50.648Z,43
2018-06-03T12:34:50.095Z,42
2018-06-03T12:36:50.411Z,43
2018-06-03T12:38:50.555Z,43
2018-06-03T12:40:50.763Z,43
2018-06-03T12:42:51.004Z,43
2018-06-03T12:44:50.192Z,42
2018-06-03T12:46:50.494Z,42
2018-06-03T12:48:50.645Z,42
2018-06-03T12:50:50.833Z,42
2018-06-03T12:52:50.950Z,40
2018-06-03T12:54:50.100Z,40
2018-06-03T12:56:50.451Z,40
2018-06-03T12:58:50.615Z,40
2018-06-03T13:00:50.782Z,40
2018-06-03T13:02:51.003Z,40
2018-06-03T13:04:50.348Z,40
2018-06-03T13:06:50.574Z,39
2018-06-03T13:08:50.814Z,39
2018-06-03T13:10:50.967Z,40
2018-06-03T13:12:50.119Z,40
2018-06-03T13:14:50.254Z,40
2018-06-03T13:16:50.581Z,40
2018-06-03T13:18:50.977Z,41
2018-06-03T13:20:50.195Z,40
2018-06-03T13:22:50.311Z,40
2018-06-03T13:24:50.448Z,40
2018-06-03T13:26:50.745Z,40
2018-06-03T13:28:50.927Z,41
2018-06-03T13:30:50.076Z,40
2018-06-03T13:32:50.229Z,40
2018-06-03T13:34:50.756Z,40
2018-06-03T13:36:49.985Z,40
2018-06-03T13:38:50.132Z,41
2018-06-03T13:40:50.364Z,40
2018-06-03T13:42:50.499Z,40
2018-06-03T13:44:50.661Z,40
2018-06-03T13:46:50.912Z,40
2018-06-03T13:48:50.025Z,39
2018-06-03T13:50:50.160Z,39
2018-06-03T13:52:50.359Z,39
2018-06-03T13:54:50.458Z,40
2018-06-03T13:56:50.742Z,39
2018-06-03T13:58:50.885Z,39
2018-06-03T14:00:50.162Z,39
2018-06-03T14:02:50.275Z,39
2018-06-03T14:04:50.676Z,40
2018-06-03T14:06:50.941Z,40
2018-06-03T14:08:50.078Z,41
2018-06-03T14:10:50.226Z,40
2018-06-03T14:12:50.354Z,40
2018-06-03T14:14:50.547Z,40
2018-06-03T14:16:50.791Z,40
2018-06-03T14:18:49.998Z,39
2018-06-03T14:20:50.209Z,39
2018-06-03T14:22:50.360Z,39
2018-06-03T14:24:50.549Z,39
2018-06-03T14:26:50.907Z,39
2018-06-03T14:28:50.045Z,39
2018-06-03T14:30:50.262Z,39
2018-06-03T14:32:50.432Z,39
2018-06-03T14:34:50.927Z,39
2018-06-03T14:36:50.152Z,39
2018-06-03T14:38:50.310Z,39
2018-06-03T14:40:50.452Z,39
2018-06-03T14:42:50.655Z,39
2018-06-03T14:44:50.850Z,39
2018-06-03T14:46:50.174Z,39
2018-06-03T14:48:50.374Z,39
2018-06-03T14:50:50.602Z,39
2018-06-03T14:52:50.774Z,39
2018-06-03T14:54:50.926Z,39
2018-06-03T14:56:50.152Z,37
2018-06-03T14:58:50.250Z,37
2018-06-03T15:00:50.473Z,38
2018-06-03T15:02:50.639Z,39
2018-06-03T15:04:49.972Z,39
2018-06-03T15:06:50.239Z,39
2018-06-03T15:08:50.382Z,39
2018-06-03T15:10:50.702Z,39
2018-06-03T15:12:49.953Z,39
2018-06-03T15:14:50.075Z,39
2018-06-03T15:16:50.371Z,39
2018-06-03T15:18:50.506Z,39
2018-06-03T15:20:50.723Z,39
2018-06-03T15:22:50.928Z,39
2018-06-03T15:24:50.122Z,39
2018-06-03T15:26:50.423Z,39
2018-06-03T15:28:50.596Z,39
2018-06-03T15:30:50.849Z,39
2018-06-03T15:32:49.979Z,39
2018-06-03T15:34:50.434Z,39
2018-06-03T15:36:50.749Z,39
2018-06-03T15:38:50.967Z,39
2018-06-03T15:40:50.118Z,39
2018-06-03T15:42:50.267Z,39
2018-06-03T15:44:50.491Z,39
2018-06-03T15:46:50.734Z,39
2018-06-03T15:48:50.899Z,39
2018-06-03T15:50:50.022Z,39
2018-06-03T15:52:50.190Z,39
2018-06-03T15:54:50.324Z,39
2018-06-03T15:56:50.630Z,37
2018-06-03T15:58:50.759Z,37
2018-06-03T16:00:52.944Z,37
2018-06-03T16:02:50.366Z,37
2018-06-03T16:04:50.634Z,37
2018-06-03T16:06:51.003Z,37
2018-06-03T16:08:50.163Z,37
2018-06-03T16:10:50.330Z,37
2018-06-03T16:12:50.610Z,37
2018-06-03T16:14:50.722Z,37
2018-06-03T16:16:50.123Z,38
2018-06-03T16:18:50.267Z,38
2018-06-03T16:20:50.404Z,38
2018-06-03T16:22:50.513Z,38
2018-06-03T16:24:50.600Z,38
2018-06-03T16:26:50.843Z,38
2018-06-03T16:28:50.035Z,38
2018-06-03T16:30:50.213Z,38
2018-06-03T16:32:50.359Z,38
2018-06-03T16:34:50.736Z,38
2018-06-03T16:36:51.053Z,37
2018-06-03T16:38:50.176Z,36
2018-06-03T16:40:50.349Z,36
2018-06-03T16:42:50.514Z,37
2018-06-03T16:44:50.675Z,38
2018-06-03T16:46:50.067Z,37
2018-06-03T16:48:50.222Z,38
2018-06-03T16:50:50.387Z,36
2018-06-03T16:52:50.518Z,36
2018-06-03T16:54:50.636Z,36
2018-06-03T16:56:50.926Z,36
2018-06-03T16:58:50.060Z,36
2018-06-03T17:00:50.213Z,36
2018-06-03T17:02:50.393Z,36
2018-06-03T17:04:50.702Z,36
2018-06-03T17:06:50.980Z,36
2018-06-03T17:08:50.131Z,36
2018-06-03T17:10:50.297Z,36
2018-06-03T17:12:50.453Z,36
2018-06-03T17:14:51.003Z,34.1
2018-06-03T17:16:50.328Z,32.8
2018-06-03T17:18:50.484Z,33.6
2018-06-03T17:20:50.576Z,34.5
2018-06-03T17:22:50.706Z,35.4
2018-06-03T17:24:50.858Z,34.8
2018-06-03T17:26:50.098Z,33.9
2018-06-03T17:28:50.259Z,35.5
2018-06-03T17:30:50.434Z,37.1
2018-06-03T17:32:50.590Z,37.2
2018-06-03T17:34:50.081Z,36.8
2018-06-03T17:36:50.328Z,37.5
2018-06-03T17:38:50.530Z,37.8
2018-06-03T17:40:50.717Z,37.6
2018-06-03T17:42:50.910Z,38.4
2018-06-03T17:44:50.110Z,38.8
2018-06-03T17:46:50.280Z,37.9
2018-06-03T17:48:50.503Z,39.2
2018-06-03T17:50:50.648Z,39.0
2018-06-03T17:52:50.778Z,37.7
2018-06-03T17:54:51.250Z,37.7
2018-06-03T17:56:50.469Z,38.6
2018-06-03T17:58:50.649Z,38.4
2018-06-03T18:00:50.806Z,38.2
2018-06-03T18:02:49.999Z,39.2
2018-06-03T18:04:50.367Z,39.6
2018-06-03T18:06:50.603Z,40.7
2018-06-03T18:08:50.746Z,40.3
2018-06-03T18:10:50.981Z,40.7
2018-06-03T18:12:50.236Z,41.2
2018-06-03T18:14:50.421Z,40.8
2018-06-03T18:16:50.926Z,40.7
2018-06-03T18:18:50.129Z,40.7
2018-06-03T18:20:50.287Z,42.0
2018-06-03T18:22:50.503Z,42.2
2018-06-03T18:24:50.638Z,42.4
2018-06-03T18:26:50.850Z,42.5
2018-06-03T18:28:50.080Z,42.6
2018-06-03T18:30:50.196Z,42.8
2018-06-03T18:32:50.359Z,43.8
2018-06-03T18:34:50.791Z,44.0
2018-06-03T18:36:50.084Z,44.4
2018-06-03T18:38:50.239Z,44.3
2018-06-03T18:40:50.392Z,44.6
2018-06-03T18:42:50.612Z,45.1
2018-06-03T18:44:50.773Z,45.2
2018-06-03T18:46:50.081Z,47.1
2018-06-03T18:48:50.326Z,46.0
2018-06-03T18:50:50.466Z,46.6
2018-06-03T18:52:50.677Z,46.8
2018-06-03T18:54:50.800Z,46.8
2018-06-03T18:56:50.193Z,47.1
2018-06-03T18:58:50.374Z,47.6
2018-06-03T19:00:50.572Z,48.4
2018-06-03T19:02:50.857Z,47.9
2018-06-03T19:04:50.194Z,48.7
2018-06-03T19:06:50.392Z,51.4
2018-06-03T19:08:50.593Z,50.6
2018-06-03T19:10:50.787Z,51.4
2018-06-03T19:12:50.903Z,50.8
2018-06-03T19:14:50.038Z,51.4
2018-06-03T19:16:50.236Z,52.4
2018-06-03T19:18:50.467Z,51.6
2018-06-03T19:20:50.570Z,53.1
2018-06-03T19:22:50.661Z,54.5
2018-06-03T19:24:50.796Z,53.5
2018-06-03T19:26:51.006Z,54.7
2018-06-03T19:28:50.137Z,55.2
2018-06-03T19:30:50.333Z,54.7
2018-06-03T19:32:50.466Z,55.6
2018-06-03T19:34:50.969Z,56.1
2018-06-03T19:36:50.149Z,56.9
2018-06-03T19:38:50.432Z,59.0
2018-06-03T19:40:51.153Z,60.2
2018-06-03T19:42:50.401Z,60.2
2018-06-03T19:44:50.575Z,58.4
2018-06-03T19:46:50.868Z,59.4
2018-06-03T19:48:50.001Z,59.4
2018-06-03T19:50:50.165Z,60.3
2018-06-03T19:52:50.352Z,61.8
2018-06-03T19:54:50.478Z,61.3
2018-06-03T19:56:50.805Z,62.7
2018-06-03T19:58:50.969Z,62.9
2018-06-03T20:00:50.110Z,62.2
2018-06-03T20:02:50.233Z,62.2
2018-06-03T20:04:50.607Z,62.3
2018-06-03T20:06:50.799Z,62.6
2018-06-03T20:08:50.969Z,63.4
2018-06-03T20:10:50.523Z,63.2
2018-06-03T20:12:50.692Z,62.8
2018-06-03T20:14:50.827Z,64.3
2018-06-03T20:16:50.319Z,64.9
2018-06-03T20:18:50.445Z,64.1
2018-06-03T20:20:50.576Z,65.6
2018-06-03T20:22:50.684Z,66.7
2018-06-03T20:24:50.853Z,66.5
2018-06-03T20:26:50.079Z,66.0
2018-06-03T20:28:50.227Z,66.7
2018-06-03T20:30:50.407Z,66.6
2018-06-03T20:32:50.574Z,66.6
2018-06-03T20:34:50.149Z,65.9
2018-06-03T20:36:50.579Z,66.0
2018-06-03T20:38:50.791Z,66.1
2018-06-03T20:40:50.002Z,66.1
2018-06-03T20:42:50.844Z,68.7
2018-06-03T20:44:50.063Z,69.6
2018-06-03T20:46:50.344Z,69.4
2018-06-03T20:48:50.517Z,69.0
2018-06-03T20:50:50.604Z,66.7
2018-06-03T20:52:50.811Z,68.2
2018-06-03T20:54:49.982Z,66.4
2018-06-03T20:56:50.209Z,66.6
2018-06-03T20:58:50.392Z,66.3
2018-06-03T21:00:50.602Z,66.2
2018-06-03T21:02:50.845Z,65.3
2018-06-03T21:04:50.141Z,65.9
2018-06-03T21:06:50.376Z,66.2
2018-06-03T21:08:50.495Z,66.2
2018-06-03T21:10:50.660Z,66.6
2018-06-03T21:12:50.851Z,67.2
2018-06-03T21:14:50.052Z,68.0
2018-06-03T21:16:50.315Z,67.9
2018-06-03T21:18:50.477Z,67.7
2018-06-03T21:20:50.646Z,68.7
2018-06-03T21:22:50.765Z,71.0
2018-06-03T21:24:50.094Z,70.9
2018-06-03T21:26:50.339Z,69.4
2018-06-03T21:28:50.467Z,69.7
2018-06-03T21:30:50.619Z,69.0
2018-06-03T21:32:50.800Z,69.3
2018-06-03T21:34:50.329Z,69.2
2018-06-03T21:36:50.518Z,69.5
2018-06-03T21:38:50.722Z,69.3
2018-06-03T21:40:50.891Z,69.7
2018-06-03T21:42:50.020Z,70.0
2018-06-03T21:44:50.180Z,70.1
2018-06-03T21:46:50.444Z,70.0
2018-06-03T21:48:50.575Z,70.3
2018-06-03T21:50:50.662Z,70.4
2018-06-03T21:52:50.861Z,70.5
2018-06-03T21:54:50.071Z,70.6
2018-06-03T21:56:50.240Z,70.9
2018-06-03T21:58:50.396Z,70.8
2018-06-03T22:00:50.596Z,70.8
2018-06-03T22:02:50.764Z,71.2
2018-06-03T22:04:50.050Z,71.5
2018-06-03T22:06:50.271Z,71.2
2018-06-03T22:08:50.386Z,72.0
2018-06-03T22:10:50.569Z,71.9
2018-06-03T22:12:50.708Z,72.1
2018-06-03T22:14:50.796Z,72.0
2018-06-03T22:16:49.988Z,71.6
2018-06-03T22:18:50.187Z,71.5
2018-06-03T22:20:50.413Z,72.0
2018-06-03T22:22:50.562Z,71.9
2018-06-03T22:24:50.747Z,71.6
2018-06-03T22:26:49.996Z,72.0
2018-06-03T22:28:50.176Z,72.0
2018-06-03T22:30:50.347Z,71.0
2018-06-03T22:32:50.479Z,71.6
2018-06-03T22:34:50.897Z,72.0
2018-06-03T22:36:50.160Z,72.1
2018-06-03T22:38:50.319Z,72.1
2018-06-03T22:40:50.426Z,72.4
2018-06-03T22:42:50.614Z,72.3
2018-06-03T22:44:50.724Z,72.5
2018-06-03T22:46:50.017Z,73.1
2018-06-03T22:48:50.167Z,72.9
2018-06-03T22:50:50.318Z,73.1
2018-06-03T22:52:50.503Z,73.1
2018-06-03T22:54:50.744Z,72.2
2018-06-03T22:56:50.012Z,72.1
2018-06-03T22:58:50.773Z,72.4
2018-06-03T23:00:50.876Z,72.6
2018-06-03T23:02:50.221Z,72.0
2018-06-03T23:04:50.552Z,72.0
2018-06-03T23:06:50.732Z,71.8
2018-06-03T23:08:50.910Z,71.9
2018-06-03T23:10:50.065Z,72.5
2018-06-03T23:12:50.279Z,72.5
2018-06-03T23:14:50.458Z,72.4
2018-06-03T23:16:50.680Z,72.8
2018-06-03T23:18:50.843Z,73.1
2018-06-03T23:20:50.017Z,74.1
2018-06-03T23:22:50.152Z,73.5
2018-06-03T23:24:50.298Z,73.8
2018-06-03T23:26:50.517Z,74.1
2018-06-03T23:28:50.665Z,73.6
2018-06-03T23:30:50.845Z,73.5
2018-06-03T23:32:50.121Z,75.1
2018-06-03T23:34:50.470Z,74.9
2018-06-03T23:36:50.673Z,75.3
2018-06-03T23:38:50.803Z,75.3
2018-06-03T23:40:50.940Z,76.2
2018-06-03T23:42:50.118Z,75.3
2018-06-03T23:44:50.220Z,75.3
2018-06-03T23:46:50.479Z,75.7
2018-06-03T23:48:50.610Z,76.7
2018-06-03T23:50:50.772Z,76.4
2018-06-03T23:52:50.974Z,76.6
2018-06-03T23:54:50.183Z,77.1
2018-06-03T23:56:50.436Z,77.4
2018-06-03T23:58:50.621Z,77.8
